Time;durP1;ratioP1;P1;durP2;ratioP2;P2;SDS_P1;SDS_P2;PMS_P1;PMS_P2;Temp;Humidity;BMP_temperature;BMP_pressure;BME280_temperature;BME280_humidity;BME280_pressure;Samples;Min_cycle;Max_cycle;Signal;HPM_P1;HPM_P2
2021/12/31 00:03:49;;;;;;;10.65;1.40;;;12.90;99.90;;;;;;4981107;28;20046;-95
2021/12/31 00:06:30;;;;;;;7.03;1.50;;;12.90;99.90;;;;;;4967563;28;20026;-95
2021/12/31 00:08:59;;;;;;;8.23;1.90;;;12.90;99.90;;;;;;4959021;28;20031;-95
2021/12/31 00:11:30;;;;;;;9.25;1.70;;;12.90;99.90;;;;;;4970177;28;20102;-94
2021/12/31 00:13:56;;;;;;;5.32;1.63;;;12.90;99.90;;;;;;4990079;28;20750;-94
2021/12/31 00:16:28;;;;;;;9.70;1.73;;;12.90;99.90;;;;;;4965473;28;20031;-96
2021/12/31 00:18:56;;;;;;;6.13;1.58;;;12.90;99.90;;;;;;4975120;28;20045;-95
2021/12/31 00:21:25;;;;;;;5.00;1.23;;;12.90;99.90;;;;;;4973032;28;20075;-94
2021/12/31 00:24:13;;;;;;;6.88;1.98;;;12.90;99.90;;;;;;4973126;28;20058;-95
2021/12/31 00:26:48;;;;;;;14.23;1.88;;;12.90;99.90;;;;;;4972200;28;20049;-95
2021/12/31 00:29:18;;;;;;;9.40;1.60;;;12.90;99.90;;;;;;4976617;28;20022;-94
2021/12/31 01:12:05;;;;;;;6.68;1.80;;;12.90;99.90;;;;;;5032405;23;20081;-95
2021/12/31 01:17:11;;;;;;;12.18;1.95;;;12.90;99.90;;;;;;5390093;23;20031;-95
2021/12/31 01:19:46;;;;;;;9.35;2.10;;;12.90;99.90;;;;;;4972876;29;20015;-94
2021/12/31 01:22:30;;;;;;;8.75;2.63;;;12.90;99.90;;;;;;4950509;29;20015;-94
2021/12/31 01:24:59;;;;;;;8.98;2.13;;;12.90;99.90;;;;;;4957911;28;20028;-96
2021/12/31 01:27:25;;;;;;;7.20;2.38;;;12.90;99.90;;;;;;4955872;29;20011;-95
2021/12/31 01:29:59;;;;;;;12.85;2.28;;;12.90;99.90;;;;;;4953599;29;20099;-96
2021/12/31 01:32:27;;;;;;;11.18;2.30;;;12.90;99.90;;;;;;5032554;23;20101;-96
2021/12/31 01:34:56;;;;;;;11.05;2.17;;;12.90;99.90;;;;;;5004812;28;20106;-96
2021/12/31 01:42:37;;;;;;;12.13;2.30;;;12.90;99.90;;;;;;5253113;23;20051;-95
2021/12/31 01:45:06;;;;;;;17.75;3.40;;;12.90;99.90;;;;;;5044426;23;20059;-95
2021/12/31 01:47:46;;;;;;;13.07;2.30;;;12.90;99.90;;;;;;4937512;29;20015;-96
2021/12/31 01:50:20;;;;;;;6.55;1.70;;;12.90;99.90;;;;;;4939982;29;20122;-96
2021/12/31 01:52:49;;;;;;;6.60;1.70;;;12.90;99.90;;;;;;4948767;28;20031;-96
2021/12/31 01:55:23;;;;;;;9.10;2.05;;;12.90;99.90;;;;;;4945490;29;20035;-96
2021/12/31 01:57:50;;;;;;;8.10;1.85;;;12.90;99.90;;;;;;4935940;29;20024;-95
2021/12/31 02:00:29;;;;;;;14.32;2.85;;;12.80;99.90;;;;;;4968678;28;20104;-94
2021/12/31 02:03:02;;;;;;;9.40;2.70;;;12.90;99.90;;;;;;4944565;29;20035;-95
2021/12/31 02:05:30;;;;;;;10.32;2.42;;;12.90;99.90;;;;;;4919267;29;20052;-95
2021/12/31 02:08:00;;;;;;;14.13;2.55;;;12.90;99.90;;;;;;4949663;29;20052;-95
2021/12/31 02:15:54;;;;;;;12.75;2.50;;;13.00;99.90;;;;;;5276908;23;20061;-95
2021/12/31 02:18:30;;;;;;;10.30;2.95;;;13.00;99.90;;;;;;5019475;28;20081;-95
2021/12/31 02:21:30;;;;;;;20.88;2.80;;;13.10;99.90;;;;;;5022663;28;20033;-96
2021/12/31 02:24:21;;;;;;;12.45;1.80;;;13.10;99.90;;;;;;4990675;28;20038;-95
2021/12/31 02:27:10;;;;;;;11.30;1.92;;;13.10;99.90;;;;;;5019576;28;20029;-95
2021/12/31 02:29:59;;;;;;;14.07;2.25;;;13.10;99.90;;;;;;5089235;23;20817;-94
2021/12/31 02:32:25;;;;;;;7.22;1.85;;;13.10;99.90;;;;;;4975650;28;20073;-96
2021/12/31 02:34:54;;;;;;;14.10;2.88;;;13.20;99.90;;;;;;4979148;28;20054;-95
2021/12/31 02:40:13;;;;;;;12.10;2.60;;;13.20;99.90;;;;;;5014730;28;20056;-96
2021/12/31 02:42:39;;;;;;;16.90;2.00;;;13.20;99.90;;;;;;4998991;28;20069;-96
2021/12/31 02:45:08;;;;;;;9.18;2.17;;;13.20;99.90;;;;;;5002238;28;20094;-96
2021/12/31 02:47:35;;;;;;;13.88;2.15;;;13.20;99.90;;;;;;4996553;28;20090;-95
2021/12/31 02:50:04;;;;;;;11.35;2.53;;;13.20;99.90;;;;;;4995112;28;20049;-96
2021/12/31 02:52:35;;;;;;;5.22;1.45;;;13.20;99.90;;;;;;4994638;28;20037;-96
2021/12/31 02:55:09;;;;;;;6.32;1.85;;;13.20;99.90;;;;;;4984224;28;20037;-96
2021/12/31 03:01:00;;;;;;;12.45;2.00;;;13.20;99.90;;;;;;5017949;28;20053;-96
2021/12/31 03:03:29;;;;;;;7.95;1.98;;;13.10;99.90;;;;;;4994806;28;20066;-95
2021/12/31 03:08:48;;;;;;;;;;;13.00;99.90;;;;;;4991693;23;20058;-95
2021/12/31 03:42:15;;;;;;;7.43;1.67;;;12.70;99.90;;;;;;4972249;29;20075;-96
2021/12/31 03:44:42;;;;;;;7.90;1.90;;;12.70;99.90;;;;;;4959941;28;20042;-95
2021/12/31 03:47:08;;;;;;;5.82;1.42;;;12.70;99.90;;;;;;4958422;29;20027;-95
2021/12/31 03:49:34;;;;;;;7.90;1.50;;;12.70;99.90;;;;;;4958964;29;20075;-95
2021/12/31 03:52:00;;;;;;;6.47;1.70;;;12.70;99.90;;;;;;4961587;29;20042;-95
2021/12/31 03:54:25;;;;;;;5.53;1.48;;;12.70;99.90;;;;;;5534830;23;20079;-95
2021/12/31 03:56:51;;;;;;;5.75;1.30;;;12.70;99.90;;;;;;4960972;28;20099;-96
2021/12/31 03:59:17;;;;;;;5.90;1.20;;;12.80;99.90;;;;;;4959501;29;20039;-96
2021/12/31 04:01:43;;;;;;;5.78;1.42;;;12.80;99.90;;;;;;4960669;29;20027;-95
2021/12/31 04:09:20;;;;;;;7.30;1.42;;;12.80;99.90;;;;;;5115203;23;20039;-95
2021/12/31 04:11:46;;;;;;;4.38;1.10;;;12.90;99.90;;;;;;4958056;29;20099;-95
2021/12/31 04:48:29;;;;;;;6.03;1.10;;;12.90;99.90;;;;;;4983989;28;20094;-95
2021/12/31 04:50:55;;;;;;;1.77;0.80;;;12.90;99.90;;;;;;4977568;28;20042;-94
2021/12/31 04:53:30;;;;;;;2.15;0.60;;;12.90;99.90;;;;;;5001081;23;20054;-95
2021/12/31 04:55:58;;;;;;;2.67;0.90;;;13.00;99.90;;;;;;4997062;28;20037;-95
2021/12/31 04:58:24;;;;;;;1.60;0.82;;;13.00;99.90;;;;;;4997789;28;20141;-96
2021/12/31 05:00:52;;;;;;;4.75;0.90;;;13.00;99.90;;;;;;5013213;28;20031;-96
2021/12/31 05:03:19;;;;;;;5.05;0.95;;;12.90;99.90;;;;;;4995802;28;20038;-95
2021/12/31 05:05:46;;;;;;;3.72;1.00;;;12.90;99.90;;;;;;4992955;28;20027;-94
2021/12/31 05:08:43;;;;;;;6.53;1.20;;;12.90;99.90;;;;;;4990301;28;20090;-96
2021/12/31 05:11:09;;;;;;;5.32;1.00;;;12.90;99.90;;;;;;4993782;28;20041;-95
2021/12/31 05:13:36;;;;;;;3.38;0.90;;;12.90;99.90;;;;;;4992924;28;20089;-96
2021/12/31 05:16:06;;;;;;;8.00;1.73;;;12.90;99.90;;;;;;4977295;28;20057;-96
2021/12/31 05:18:32;;;;;;;9.27;2.25;;;12.90;99.90;;;;;;4992897;28;20057;-96
2021/12/31 05:21:02;;;;;;;4.60;1.38;;;12.90;99.90;;;;;;4992620;28;20061;-96
2021/12/31 05:23:35;;;;;;;4.57;1.00;;;12.90;99.90;;;;;;5011221;28;20015;-95
2021/12/31 05:26:03;;;;;;;3.17;1.15;;;12.90;99.90;;;;;;4991392;28;20094;-96
2021/12/31 05:28:32;;;;;;;2.42;1.10;;;12.90;99.90;;;;;;4978426;28;20033;-96
2021/12/31 05:31:03;;;;;;;6.38;1.42;;;12.90;99.90;;;;;;4990540;28;20110;-96
2021/12/31 05:33:30;;;;;;;7.38;1.42;;;12.90;99.90;;;;;;4992825;28;20061;-96
2021/12/31 05:35:59;;;;;;;3.53;0.98;;;12.90;99.90;;;;;;4995075;28;20030;-96
2021/12/31 05:38:31;;;;;;;6.57;1.50;;;12.90;99.90;;;;;;4965999;28;20019;-96
2021/12/31 05:41:02;;;;;;;4.30;1.33;;;12.90;99.90;;;;;;4965016;28;20106;-96
2021/12/31 05:43:28;;;;;;;5.10;1.10;;;12.90;99.90;;;;;;4973841;28;20043;-96
2021/12/31 05:46:00;;;;;;;7.80;1.00;;;12.90;99.90;;;;;;4979008;28;20030;-95
2021/12/31 05:48:38;;;;;;;0.52;0.43;;;13.00;99.90;;;;;;4995565;28;20019;-96
2021/12/31 05:51:16;;;;;;;4.45;0.95;;;12.90;99.90;;;;;;4993275;28;20053;-96
2021/12/31 05:53:44;;;;;;;5.72;0.93;;;12.90;99.90;;;;;;4967543;28;20067;-96
2021/12/31 05:56:10;;;;;;;6.78;1.00;;;12.90;99.90;;;;;;5019833;23;20127;-95
2021/12/31 05:58:38;;;;;;;4.32;0.90;;;12.90;99.90;;;;;;5085240;23;20096;-95
2021/12/31 06:01:04;;;;;;;6.18;1.13;;;12.90;99.90;;;;;;4977653;28;20073;-95
2021/12/31 06:39:37;;;;;;;7.82;1.48;;;13.00;99.90;;;;;;1425850;23;20467;-93
2021/12/31 06:55:50;;;;;;;9.40;1.92;;;13.00;99.90;;;;;;4975150;28;20036;-95
2021/12/31 06:58:18;;;;;;;9.23;2.10;;;13.00;99.90;;;;;;4961511;28;20501;-95
2021/12/31 07:00:44;;;;;;;11.43;1.70;;;13.00;99.90;;;;;;4962679;28;20015;-94
2021/12/31 07:03:16;;;;;;;9.70;1.58;;;13.00;99.90;;;;;;4979734;28;20011;-96
2021/12/31 07:05:46;;;;;;;10.38;1.92;;;13.00;99.90;;;;;;4963855;28;20027;-96
2021/12/31 07:08:13;;;;;;;7.73;1.50;;;13.00;99.90;;;;;;4980003;28;20034;-95
2021/12/31 07:10:39;;;;;;;8.20;1.30;;;12.90;99.90;;;;;;4960668;28;20286;-95
2021/12/31 07:13:10;;;;;;;9.13;1.92;;;12.90;99.90;;;;;;4959749;29;20043;-96
2021/12/31 07:16:02;;;;;;;7.63;2.10;;;12.90;99.90;;;;;;4958420;29;20042;-95
2021/12/31 07:19:01;;;;;;;10.45;1.40;;;12.90;99.90;;;;;;4960684;29;20035;-96
2021/12/31 07:24:16;;;;;;;5.90;1.38;;;12.90;99.90;;;;;;5133601;23;20046;-96
2021/12/31 07:26:44;;;;;;;4.57;1.05;;;12.90;99.90;;;;;;5100697;23;20074;-96
2021/12/31 07:29:29;;;;;;;6.15;1.85;;;12.90;99.90;;;;;;5395135;23;20059;-95
2021/12/31 07:31:55;;;;;;;4.68;1.15;;;12.90;99.90;;;;;;4960350;29;20075;-96
2021/12/31 07:34:21;;;;;;;12.38;2.78;;;12.90;99.90;;;;;;4957610;28;20032;-96
2021/12/31 07:36:47;;;;;;;5.40;1.50;;;12.90;99.90;;;;;;4973241;28;20062;-96
2021/12/31 07:39:13;;;;;;;10.30;2.10;;;12.90;99.90;;;;;;4959558;28;20131;-96
2021/12/31 07:41:40;;;;;;;8.77;1.50;;;12.90;99.90;;;;;;5023941;23;20054;-96
2021/12/31 07:44:06;;;;;;;7.07;1.55;;;12.90;99.90;;;;;;4975613;28;20038;-96
2021/12/31 07:46:33;;;;;;;11.10;1.90;;;12.90;99.90;;;;;;4992553;28;20059;-96
2021/12/31 07:49:02;;;;;;;11.32;2.10;;;12.90;99.90;;;;;;4978454;28;20078;-95
2021/12/31 07:51:31;;;;;;;11.90;2.20;;;12.80;99.90;;;;;;4979295;28;20041;-96
2021/12/31 07:53:57;;;;;;;6.60;1.63;;;12.80;99.90;;;;;;4975281;28;20109;-96
2021/12/31 07:56:23;;;;;;;9.93;1.33;;;12.80;99.90;;;;;;4974047;28;20050;-96
2021/12/31 07:58:49;;;;;;;13.45;2.95;;;12.80;99.90;;;;;;4971754;28;20034;-96
2021/12/31 08:01:16;;;;;;;8.15;1.90;;;12.80;99.90;;;;;;4992696;28;20023;-96
2021/12/31 08:03:42;;;;;;;6.07;1.27;;;12.80;99.90;;;;;;4977084;28;20030;-96
2021/12/31 08:06:08;;;;;;;7.28;1.52;;;12.80;99.90;;;;;;4974377;28;20090;-96
2021/12/31 08:08:34;;;;;;;12.40;2.88;;;12.80;99.90;;;;;;4988042;28;20026;-96
2021/12/31 08:10:59;;;;;;;12.15;1.88;;;12.80;99.90;;;;;;4976381;28;20029;-96
2021/12/31 08:13:26;;;;;;;8.88;1.40;;;12.80;99.90;;;;;;4976441;28;20054;-96
2021/12/31 08:15:52;;;;;;;7.40;1.13;;;12.80;99.90;;;;;;4976267;28;20042;-95
2021/12/31 08:18:18;;;;;;;12.30;2.60;;;12.80;99.90;;;;;;4974324;28;20018;-96
2021/12/31 08:20:44;;;;;;;5.78;1.27;;;12.80;99.90;;;;;;4959004;28;20038;-96
2021/12/31 08:23:14;;;;;;;3.80;1.08;;;12.80;99.90;;;;;;4989939;28;20034;-95
2021/12/31 08:25:42;;;;;;;6.57;1.13;;;12.80;99.90;;;;;;4991449;28;20041;-95
2021/12/31 08:28:09;;;;;;;3.03;1.33;;;12.80;99.90;;;;;;4975799;28;20027;-95
2021/12/31 08:30:35;;;;;;;6.03;1.27;;;12.80;99.90;;;;;;4979561;28;20111;-96
2021/12/31 08:33:01;;;;;;;6.35;1.20;;;12.70;99.90;;;;;;4977485;28;20031;-96
2021/12/31 08:35:27;;;;;;;6.25;1.20;;;12.70;99.90;;;;;;4974693;28;20050;-95
2021/12/31 08:37:53;;;;;;;4.28;1.33;;;12.70;99.90;;;;;;4975186;28;20030;-96
2021/12/31 08:40:26;;;;;;;4.57;1.73;;;12.70;99.90;;;;;;4977026;28;20119;-96
2021/12/31 08:42:56;;;;;;;2.53;1.48;;;12.70;99.90;;;;;;4976155;28;20023;-96
2021/12/31 08:45:25;;;;;;;7.15;1.63;;;12.70;99.90;;;;;;4976571;28;20045;-96
2021/12/31 08:47:52;;;;;;;1.65;0.80;;;12.70;99.90;;;;;;4974480;28;20039;-96
2021/12/31 08:50:28;;;;;;;3.42;1.02;;;12.70;99.90;;;;;;4973868;28;20042;-96
2021/12/31 08:52:54;;;;;;;4.40;1.40;;;12.70;99.90;;;;;;4975808;28;20046;-95
2021/12/31 08:55:31;;;;;;;1.00;0.50;;;12.70;99.90;;;;;;4975795;28;20019;-95
2021/12/31 08:58:02;;;;;;;2.40;0.90;;;12.60;99.90;;;;;;4996673;28;20042;-96
2021/12/31 09:00:32;;;;;;;5.28;1.10;;;12.60;99.90;;;;;;4996637;28;20086;-95
2021/12/31 09:03:01;;;;;;;0.75;0.50;;;12.60;99.90;;;;;;4974902;28;20146;-96
2021/12/31 09:05:30;;;;;;;3.35;1.08;;;12.60;99.90;;;;;;4973196;28;20027;-95
2021/12/31 09:07:59;;;;;;;2.30;0.70;;;12.60;99.90;;;;;;4973551;28;20033;-95
2021/12/31 09:10:26;;;;;;;3.95;1.58;;;12.70;99.90;;;;;;4971747;28;20015;-96
2021/12/31 09:12:57;;;;;;;0.77;0.55;;;12.70;99.90;;;;;;4962109;28;20031;-96
2021/12/31 09:15:24;;;;;;;2.28;0.80;;;12.70;99.90;;;;;;4976207;28;20073;-95
2021/12/31 09:17:51;;;;;;;1.88;0.73;;;12.70;99.90;;;;;;4972774;28;20038;-95
2021/12/31 09:20:17;;;;;;;0.93;0.47;;;12.80;99.90;;;;;;4970803;28;20142;-96
2021/12/31 09:22:43;;;;;;;0.50;0.30;;;12.80;99.90;;;;;;4965853;28;20011;-96
2021/12/31 09:25:10;;;;;;;1.65;0.93;;;12.80;99.90;;;;;;4974661;28;20043;-96
2021/12/31 09:27:37;;;;;;;1.35;0.68;;;12.90;99.90;;;;;;4972573;28;20030;-96
2021/12/31 09:30:05;;;;;;;3.38;0.80;;;12.90;99.90;;;;;;5087260;23;21177;-94
2021/12/31 09:32:31;;;;;;;1.75;0.75;;;12.90;99.90;;;;;;4994407;28;20039;-95
2021/12/31 09:34:56;;;;;;;4.03;0.80;;;13.00;99.90;;;;;;4977650;28;20369;-93
2021/12/31 09:37:22;;;;;;;2.83;0.70;;;13.00;99.90;;;;;;4947660;29;20038;-94
2021/12/31 09:39:48;;;;;;;1.98;0.60;;;13.00;99.90;;;;;;4968185;29;20024;-93
2021/12/31 09:42:14;;;;;;;3.90;1.00;;;13.00;99.90;;;;;;4967312;29;20057;-92
2021/12/31 09:44:40;;;;;;;3.17;0.77;;;13.00;99.90;;;;;;4957155;29;20035;-95
2021/12/31 09:47:16;;;;;;;3.95;0.80;;;13.00;99.90;;;;;;4972890;29;20087;-95
2021/12/31 09:49:42;;;;;;;5.47;1.10;;;13.00;99.90;;;;;;5151813;23;20047;-95
2021/12/31 09:52:11;;;;;;;3.53;0.95;;;13.00;99.90;;;;;;4952485;29;20437;-94
2021/12/31 09:54:46;;;;;;;2.67;0.77;;;13.00;99.90;;;;;;4945824;29;20070;-94
2021/12/31 09:57:18;;;;;;;3.55;1.10;;;13.00;99.90;;;;;;4950462;29;20114;-94
2021/12/31 09:59:48;;;;;;;2.95;0.90;;;13.00;99.90;;;;;;4955882;29;20034;-94
2021/12/31 10:02:15;;;;;;;2.92;1.00;;;13.10;99.90;;;;;;4947099;29;20031;-95
2021/12/31 10:05:00;;;;;;;8.90;1.10;;;13.10;99.90;;;;;;4962581;28;20031;-93
2021/12/31 10:07:30;;;;;;;5.30;1.55;;;13.20;99.90;;;;;;4942031;29;20037;-95
2021/12/31 10:10:08;;;;;;;4.22;1.00;;;13.30;99.90;;;;;;4942386;29;20031;-93
2021/12/31 10:12:56;;;;;;;7.93;1.85;;;13.20;99.90;;;;;;4945704;29;20042;-95
2021/12/31 10:15:26;;;;;;;7.18;1.50;;;13.20;99.90;;;;;;4940575;29;20027;-93
2021/12/31 10:17:53;;;;;;;13.68;1.42;;;13.20;99.90;;;;;;4941469;29;20035;-93
2021/12/31 10:20:20;;;;;;;9.68;1.60;;;13.20;99.90;;;;;;4949089;29;20027;-95
2021/12/31 10:22:50;;;;;;;7.40;1.50;;;13.20;99.90;;;;;;4938300;29;20023;-95
2021/12/31 10:25:22;;;;;;;9.27;1.42;;;13.30;99.90;;;;;;4955700;29;20027;-94
2021/12/31 10:27:50;;;;;;;9.38;1.40;;;13.30;99.90;;;;;;4946672;29;20038;-96
2021/12/31 10:30:26;;;;;;;4.65;1.27;;;13.40;99.90;;;;;;4945403;29;20038;-95
2021/12/31 10:32:52;;;;;;;6.82;1.33;;;13.40;99.90;;;;;;4941705;29;20079;-94
2021/12/31 10:35:22;;;;;;;12.63;2.60;;;13.40;99.90;;;;;;4935886;29;20026;-93
2021/12/31 10:37:57;;;;;;;12.40;2.58;;;13.40;99.90;;;;;;4937345;29;20031;-95
2021/12/31 10:40:41;;;;;;;7.05;1.90;;;13.40;99.90;;;;;;4948222;29;20038;-93
2021/12/31 10:43:25;;;;;;;11.15;2.10;;;13.50;99.90;;;;;;4942055;29;20022;-94
2021/12/31 10:46:31;;;;;;;13.85;2.15;;;13.50;99.90;;;;;;4952176;29;20027;-95
2021/12/31 10:49:06;;;;;;;13.52;1.83;;;13.50;99.90;;;;;;4977991;28;20572;-92
2021/12/31 10:51:46;;;;;;;9.48;2.03;;;13.60;99.90;;;;;;4967042;28;20030;-96
2021/12/31 10:54:27;;;;;;;12.65;2.30;;;13.70;99.90;;;;;;4981016;28;20043;-95
2021/12/31 10:56:53;;;;;;;8.85;1.52;;;13.80;99.90;;;;;;4958863;28;20045;-94
2021/12/31 10:59:18;;;;;;;12.40;2.00;;;13.90;99.90;;;;;;4964738;28;20489;-94
2021/12/31 11:01:44;;;;;;;10.55;2.08;;;14.00;99.90;;;;;;4961971;28;20027;-95
2021/12/31 11:04:11;;;;;;;5.68;1.40;;;13.90;99.90;;;;;;4956352;28;20019;-95
2021/12/31 11:06:41;;;;;;;10.77;2.30;;;13.90;99.90;;;;;;4951739;28;20027;-95
2021/12/31 11:09:13;;;;;;;15.35;2.45;;;13.80;99.90;;;;;;4942696;29;20027;-95
2021/12/31 11:11:43;;;;;;;14.43;3.55;;;13.80;99.90;;;;;;4945999;29;20039;-95
2021/12/31 11:14:10;;;;;;;12.15;2.83;;;14.00;99.90;;;;;;4944120;28;20030;-96
2021/12/31 11:16:39;;;;;;;13.38;2.28;;;14.20;99.90;;;;;;4950932;28;20031;-95
2021/12/31 11:19:12;;;;;;;11.60;1.85;;;14.40;99.90;;;;;;4947606;28;20018;-95
2021/12/31 11:21:39;;;;;;;14.93;4.13;;;14.60;99.90;;;;;;4948499;29;20031;-95
2021/12/31 11:24:27;;;;;;;8.13;1.60;;;14.70;99.90;;;;;;4944277;29;20050;-95
2021/12/31 11:26:53;;;;;;;9.25;1.85;;;14.90;99.90;;;;;;4959694;29;20058;-94
2021/12/31 11:29:19;;;;;;;3.90;1.08;;;15.10;99.90;;;;;;4965400;28;20023;-95
2021/12/31 11:31:45;;;;;;;10.70;2.42;;;15.20;99.90;;;;;;4964087;28;20039;-93
2021/12/31 11:34:12;;;;;;;13.45;2.47;;;15.30;99.90;;;;;;4961988;28;20034;-94
2021/12/31 11:36:39;;;;;;;13.13;2.28;;;15.50;99.90;;;;;;4964058;28;20428;-94
2021/12/31 11:39:28;;;;;;;13.70;2.95;;;15.50;99.90;;;;;;4966483;28;20027;-94
2021/12/31 11:41:57;;;;;;;8.60;2.28;;;15.60;99.90;;;;;;4963207;28;20094;-95
2021/12/31 11:44:25;;;;;;;14.57;2.00;;;15.70;99.90;;;;;;4962193;28;20037;-95
2021/12/31 11:46:51;;;;;;;12.10;1.77;;;15.80;99.90;;;;;;4960644;28;20034;-95
2021/12/31 11:49:22;;;;;;;14.70;2.65;;;15.80;99.90;;;;;;4959875;28;20039;-93
2021/12/31 11:52:05;;;;;;;10.15;2.20;;;15.90;99.90;;;;;;4959632;28;20097;-94
2021/12/31 11:54:32;;;;;;;12.65;3.10;;;16.00;99.90;;;;;;4959887;28;20034;-95
2021/12/31 11:57:00;;;;;;;17.73;3.63;;;16.30;99.90;;;;;;4959680;28;20433;-95
2021/12/31 11:59:37;;;;;;;7.88;2.08;;;16.60;99.90;;;;;;4960329;28;20041;-96
2021/12/31 12:02:16;;;;;;;12.30;2.47;;;16.80;99.90;;;;;;4961697;28;20023;-95
2021/12/31 12:05:02;;;;;;;12.18;2.03;;;16.90;99.90;;;;;;4960213;28;20051;-96
2021/12/31 12:07:38;;;;;;;10.85;3.05;;;17.00;99.90;;;;;;4959710;28;20118;-94
2021/12/31 12:10:13;;;;;;;11.02;1.92;;;17.20;99.90;;;;;;4959402;28;20046;-95
2021/12/31 12:12:40;;;;;;;7.35;1.80;;;17.30;99.90;;;;;;4959889;28;20122;-94
2021/12/31 12:15:15;;;;;;;15.20;1.95;;;17.20;99.90;;;;;;4959037;28;20027;-92
2021/12/31 12:17:44;;;;;;;11.57;2.97;;;17.30;99.90;;;;;;4960294;28;20022;-93
2021/12/31 12:20:13;;;;;;;15.48;2.72;;;17.50;99.90;;;;;;4959789;28;20027;-95
2021/12/31 12:22:54;;;;;;;10.23;2.42;;;17.80;99.90;;;;;;4961376;28;20031;-94
2021/12/31 12:25:32;;;;;;;12.18;3.00;;;18.10;99.90;;;;;;4963280;28;20033;-96
2021/12/31 12:28:09;;;;;;;16.13;4.20;;;18.30;99.50;;;;;;4962468;28;20480;-95
2021/12/31 12:30:41;;;;;;;12.60;2.72;;;18.50;98.00;;;;;;4962916;28;20073;-94
2021/12/31 12:33:16;;;;;;;9.50;2.28;;;18.60;97.60;;;;;;4962322;28;20035;-94
2021/12/31 12:35:50;;;;;;;9.25;2.55;;;18.60;97.10;;;;;;4965264;28;20026;-95
2021/12/31 12:38:21;;;;;;;14.30;2.70;;;18.60;96.20;;;;;;4965891;28;20069;-96
2021/12/31 12:40:57;;;;;;;11.23;2.22;;;18.50;95.70;;;;;;4961778;28;20037;-93
2021/12/31 12:43:27;;;;;;;15.32;3.42;;;18.20;95.10;;;;;;4959718;28;20031;-94
2021/12/31 12:45:55;;;;;;;15.23;2.37;;;18.10;95.30;;;;;;4975939;28;20090;-95
2021/12/31 12:48:42;;;;;;;15.55;3.28;;;18.20;95.30;;;;;;4959093;28;20334;-95
2021/12/31 12:51:13;;;;;;;12.02;2.40;;;18.40;95.10;;;;;;4959754;28;20066;-95
2021/12/31 12:53:42;;;;;;;14.25;2.65;;;18.50;94.40;;;;;;4958723;28;20035;-96
2021/12/31 12:56:09;;;;;;;15.23;2.53;;;18.60;93.80;;;;;;4958865;28;20023;-95
2021/12/31 12:58:40;;;;;;;12.60;2.42;;;18.60;93.00;;;;;;4958864;28;20052;-94
2021/12/31 13:01:06;;;;;;;;;;;18.60;92.80;;;;;;4958702;28;20026;-94
2021/12/31 13:03:53;;;;;;;15.38;2.55;;;18.50;92.40;;;;;;4957908;28;19988;-94
2021/12/31 13:06:21;;;;;;;11.27;2.15;;;18.40;91.60;;;;;;4957895;28;20037;-93
2021/12/31 13:08:46;;;;;;;13.25;2.67;;;18.20;91.80;;;;;;4958092;28;20034;-95
2021/12/31 13:11:14;;;;;;;15.02;2.50;;;18.00;91.50;;;;;;4959662;28;20031;-95
2021/12/31 13:13:39;;;;;;;14.35;2.78;;;17.80;92.20;;;;;;4958641;28;20038;-96
2021/12/31 13:16:07;;;;;;;14.57;3.10;;;17.70;92.30;;;;;;4959356;28;20030;-96
2021/12/31 13:18:36;;;;;;;16.95;2.85;;;17.70;92.70;;;;;;4959842;28;20034;-95
2021/12/31 13:21:14;;;;;;;13.32;3.28;;;17.80;93.00;;;;;;4959023;28;20030;-95
2021/12/31 13:23:49;;;;;;;15.32;3.88;;;18.00;93.00;;;;;;4958227;28;20037;-95
2021/12/31 13:26:26;;;;;;;17.98;3.55;;;18.20;92.70;;;;;;4958320;28;20460;-96
2021/12/31 13:28:56;;;;;;;16.75;3.65;;;18.20;92.10;;;;;;4975554;28;20519;-94
2021/12/31 13:31:37;;;;;;;19.17;3.00;;;18.20;91.90;;;;;;4959885;28;20030;-96
2021/12/31 13:34:32;;;;;;;;;;;18.20;92.10;;;;;;4963251;28;20043;-94
2021/12/31 13:36:57;;;;;;;19.27;3.85;;;18.10;91.70;;;;;;4949476;28;19996;-95
2021/12/31 13:39:44;;;;;;;14.48;2.40;;;17.90;91.90;;;;;;4958834;28;20057;-93
2021/12/31 13:42:15;;;;;;;18.08;2.80;;;17.40;92.10;;;;;;4958363;28;20027;-95
2021/12/31 13:44:48;;;;;;;11.93;2.40;;;17.10;92.80;;;;;;4958303;28;20042;-94
2021/12/31 13:47:16;;;;;;;16.50;2.67;;;16.70;93.50;;;;;;4959785;28;20025;-96
2021/12/31 13:49:48;;;;;;;15.63;2.50;;;16.40;94.30;;;;;;4960389;28;20047;-95
2021/12/31 13:52:26;;;;;;;17.27;3.13;;;16.20;95.20;;;;;;4960091;28;20027;-95
2021/12/31 13:54:56;;;;;;;19.00;2.83;;;15.90;95.80;;;;;;4971145;28;20263;-95
2021/12/31 13:57:30;;;;;;;18.85;2.25;;;15.70;96.30;;;;;;4962240;28;20589;-94
2021/12/31 14:00:16;;;;;;;15.45;1.98;;;15.50;97.20;;;;;;4960747;28;20045;-95
2021/12/31 14:02:43;;;;;;;18.55;2.63;;;15.30;97.70;;;;;;4958988;28;20038;-95
2021/12/31 14:05:12;;;;;;;11.90;2.35;;;15.20;98.30;;;;;;4963479;28;20030;-94
2021/12/31 14:07:46;;;;;;;17.48;2.92;;;15.10;99.10;;;;;;4964530;28;20182;-95
2021/12/31 14:10:14;;;;;;;20.27;4.18;;;15.00;99.60;;;;;;4965018;28;20037;-94
2021/12/31 14:13:03;;;;;;;13.80;2.55;;;15.00;99.90;;;;;;4961625;28;20038;-95
2021/12/31 14:15:32;;;;;;;21.02;3.65;;;14.90;99.90;;;;;;4961795;28;20022;-96
2021/12/31 14:18:00;;;;;;;22.50;3.97;;;14.90;99.90;;;;;;4961595;28;20031;-95
2021/12/31 14:20:35;;;;;;;14.90;3.00;;;14.80;99.90;;;;;;4961091;28;20105;-93
2021/12/31 14:23:02;;;;;;;24.25;3.72;;;14.80;99.90;;;;;;4961310;28;20022;-95
2021/12/31 14:25:33;;;;;;;20.23;3.67;;;14.70;99.90;;;;;;4960740;28;20500;-94
2021/12/31 14:28:00;;;;;;;21.55;4.45;;;14.60;99.90;;;;;;4960864;28;20113;-94
2021/12/31 14:30:27;;;;;;;15.18;2.85;;;14.60;99.90;;;;;;4961184;28;20019;-95
2021/12/31 14:32:54;;;;;;;19.38;5.47;;;14.60;99.90;;;;;;4961181;28;20042;-94
2021/12/31 14:35:25;;;;;;;18.92;3.50;;;14.70;99.90;;;;;;4962489;28;20130;-95
2021/12/31 14:37:51;;;;;;;16.33;3.00;;;14.70;99.90;;;;;;4961947;28;20126;-96
2021/12/31 14:40:20;;;;;;;15.02;2.90;;;14.80;99.90;;;;;;4961121;28;20053;-96
2021/12/31 14:42:47;;;;;;;17.20;3.25;;;14.80;99.90;;;;;;4961507;28;20034;-96
2021/12/31 14:45:13;;;;;;;20.50;2.90;;;14.80;99.90;;;;;;4961517;28;20023;-94
2021/12/31 14:47:41;;;;;;;28.13;5.85;;;14.80;99.90;;;;;;4962175;28;20070;-94
2021/12/31 14:50:10;;;;;;;25.98;3.97;;;14.70;99.90;;;;;;4965539;28;20047;-95
2021/12/31 14:52:37;;;;;;;24.75;3.22;;;14.70;99.90;;;;;;4967063;28;20035;-95
2021/12/31 14:55:08;;;;;;;24.15;4.07;;;14.70;99.90;;;;;;4973539;28;20039;-92
2021/12/31 14:57:36;;;;;;;15.23;3.72;;;14.60;99.90;;;;;;4973991;28;20026;-94
2021/12/31 15:00:04;;;;;;;15.43;3.60;;;14.60;99.90;;;;;;4966882;28;20030;-95
2021/12/31 15:02:29;;;;;;;15.95;2.40;;;14.50;99.90;;;;;;4960471;28;20039;-95
2021/12/31 15:04:55;;;;;;;24.75;5.90;;;14.40;99.90;;;;;;4961241;28;20167;-93
2021/12/31 15:07:21;;;;;;;27.25;6.57;;;14.40;99.90;;;;;;4960663;28;20023;-94
2021/12/31 15:09:47;;;;;;;21.08;4.05;;;14.30;99.90;;;;;;4961067;28;20041;-93
2021/12/31 15:12:13;;;;;;;15.38;3.20;;;14.20;99.90;;;;;;4962913;28;20039;-94
2021/12/31 15:14:40;;;;;;;24.38;3.50;;;14.20;99.90;;;;;;4964124;28;20567;-96
2021/12/31 15:17:06;;;;;;;20.60;4.30;;;14.10;99.90;;;;;;4962928;28;20030;-95
2021/12/31 15:19:32;;;;;;;24.42;6.32;;;14.00;99.90;;;;;;4961369;28;20037;-96
2021/12/31 15:21:58;;;;;;;23.60;4.65;;;14.00;99.90;;;;;;4966380;28;20109;-93
2021/12/31 15:24:24;;;;;;;21.20;4.68;;;14.00;99.90;;;;;;4944557;28;20034;-95
2021/12/31 15:26:53;;;;;;;25.88;4.47;;;13.90;99.90;;;;;;4960856;28;20501;-94
2021/12/31 15:29:19;;;;;;;23.30;4.80;;;13.80;99.90;;;;;;4971176;28;20034;-93
2021/12/31 15:31:46;;;;;;;19.77;2.88;;;13.80;99.90;;;;;;4963802;28;20035;-94
2021/12/31 15:34:12;;;;;;;20.80;3.50;;;13.80;99.90;;;;;;4963970;28;20448;-95
2021/12/31 15:36:39;;;;;;;21.77;2.97;;;13.70;99.90;;;;;;4962219;28;20046;-94
2021/12/31 15:39:05;;;;;;;19.73;2.53;;;13.70;99.90;;;;;;4960884;28;20109;-94
2021/12/31 15:41:31;;;;;;;19.48;2.97;;;13.60;99.90;;;;;;4963807;28;20018;-94
2021/12/31 15:43:57;;;;;;;20.92;3.95;;;13.60;99.90;;;;;;4960739;28;20051;-93
2021/12/31 15:46:22;;;;;;;18.77;3.20;;;13.50;99.90;;;;;;4965414;28;20045;-94
2021/12/31 15:48:48;;;;;;;23.05;2.92;;;13.50;99.90;;;;;;4961294;28;20053;-94
2021/12/31 15:51:15;;;;;;;20.20;4.32;;;13.50;99.90;;;;;;4965371;28;20031;-95
2021/12/31 15:53:41;;;;;;;16.25;2.63;;;13.50;99.90;;;;;;4961443;28;20065;-94
2021/12/31 15:56:10;;;;;;;18.73;2.88;;;13.40;99.90;;;;;;4963493;28;20031;-96
2021/12/31 15:58:42;;;;;;;17.23;2.50;;;13.40;99.90;;;;;;4965647;28;20033;-95
2021/12/31 16:01:08;;;;;;;24.15;3.05;;;13.40;99.90;;;;;;4959980;28;20050;-95
2021/12/31 16:03:35;;;;;;;17.88;3.65;;;13.30;99.90;;;;;;4960083;28;20038;-93
2021/12/31 16:06:00;;;;;;;24.67;3.85;;;13.30;99.90;;;;;;4959854;28;20034;-95
2021/12/31 16:08:26;;;;;;;21.25;4.03;;;13.30;99.90;;;;;;4959669;28;20117;-94